Time;durP1;ratioP1;P1;durP2;ratioP2;P2;SDS_P1;SDS_P2;PMS_P1;PMS_P2;Temp;Humidity;BMP_temperature;BMP_pressure;BME280_temperature;BME280_humidity;BME280_pressure;Samples;Min_cycle;Max_cycle;Signal;HPM_P1;HPM_P2
2023/03/15 00:01:17;;;;;;;3.90;2.60;;;;;;;3.62;79.03;97455.32;104808;1263;113653;-64
2023/03/15 00:03:56;;;;;;;3.30;1.90;;;;;;;3.55;79.21;97476.56;104597;1257;99284;-64
2023/03/15 00:06:23;;;;;;;2.50;2.10;;;;;;;3.47;79.08;97487.91;104623;1264;106493;-65
2023/03/15 00:08:51;;;;;;;5.10;2.60;;;;;;;3.35;78.81;97501.42;104886;1263;100575;-64
2023/03/15 00:11:18;;;;;;;3.80;2.50;;;;;;;3.26;78.86;97508.97;104935;1261;99355;-64
2023/03/15 00:13:46;;;;;;;2.80;2.10;;;;;;;3.23;79.29;97525.58;104847;1262;99234;-64
2023/03/15 00:16:16;;;;;;;3.60;1.80;;;;;;;3.21;79.02;97531.56;104935;1274;99269;-64
2023/03/15 00:18:45;;;;;;;3.20;2.00;;;;;;;3.14;78.91;97539.14;104929;1260;109843;-64
2023/03/15 00:21:13;;;;;;;3.00;1.80;;;;;;;3.11;78.86;97546.16;104618;1271;99202;-65
2023/03/15 00:23:40;;;;;;;2.70;1.90;;;;;;;3.11;78.38;97546.77;104841;1261;99715;-64
2023/03/15 00:26:07;;;;;;;2.20;1.50;;;;;;;3.13;78.76;97558.42;104770;1260;99240;-64
2023/03/15 00:28:34;;;;;;;3.10;2.20;;;;;;;3.10;78.78;97561.02;104829;1260;99317;-64
2023/03/15 00:31:10;;;;;;;3.60;2.40;;;;;;;3.08;78.60;97568.52;104815;1260;99294;-71
2023/03/15 00:33:37;;;;;;;3.90;2.30;;;;;;;3.06;78.74;97577.47;104917;1261;99329;-64
2023/03/15 00:36:07;;;;;;;3.70;2.50;;;;;;;3.04;78.77;97583.88;104638;1260;99349;-65
2023/03/15 00:38:36;;;;;;;5.10;2.60;;;;;;;3.04;79.07;97586.70;104645;1264;113414;-65
2023/03/15 00:41:12;;;;;;;4.80;2.90;;;;;;;3.05;79.13;97587.18;104770;1261;99220;-64
2023/03/15 00:43:39;;;;;;;4.30;2.80;;;;;;;3.03;79.02;97601.27;104678;1263;108579;-64
2023/03/15 00:46:07;;;;;;;3.60;2.60;;;;;;;3.00;79.07;97596.77;104812;1270;99311;-64
2023/03/15 00:48:35;;;;;;;3.50;2.30;;;;;;;2.98;78.83;97606.31;104925;1262;100515;-64
2023/03/15 00:51:14;;;;;;;4.80;2.60;;;;;;;3.00;78.83;97618.15;104939;1260;99329;-64
2023/03/15 00:53:43;;;;;;;3.40;2.40;;;;;;;3.00;78.41;97631.94;104926;1258;99803;-64
2023/03/15 00:56:16;;;;;;;2.40;2.10;;;;;;;2.99;78.08;97635.96;104940;1261;108521;-64
2023/03/15 00:58:43;;;;;;;2.90;2.00;;;;;;;2.97;78.43;97645.52;104908;1263;99195;-64
2023/03/15 01:01:18;;;;;;;5.00;2.60;;;;;;;2.99;78.11;97647.23;104969;1257;99257;-64
2023/03/15 01:03:45;;;;;;;5.50;1.90;;;;;;;2.97;78.13;97654.48;104986;1263;112278;-64
2023/03/15 01:06:14;;;;;;;4.30;2.80;;;;;;;2.94;78.03;97658.43;104676;1257;301562;-64
2023/03/15 01:08:42;;;;;;;3.20;2.40;;;;;;;2.91;78.02;97662.32;104922;1263;108258;-64
2023/03/15 01:11:12;;;;;;;4.00;2.50;;;;;;;2.86;77.76;97657.81;104807;1262;99352;-64
2023/03/15 01:13:40;;;;;;;4.20;2.50;;;;;;;2.84;78.14;97658.00;104641;1265;99542;-64
2023/03/15 01:16:10;;;;;;;4.20;2.40;;;;;;;2.80;78.25;97661.19;104887;1263;113219;-64
2023/03/15 01:18:37;;;;;;;4.70;1.90;;;;;;;2.76;78.09;97669.13;104865;1262;99260;-64
2023/03/15 01:21:10;;;;;;;5.20;2.20;;;;;;;2.72;77.59;97674.69;104816;1262;99291;-65
2023/03/15 01:23:38;;;;;;;7.10;3.20;;;;;;;2.70;77.54;97676.23;104591;1265;100640;-65
2023/03/15 01:26:09;;;;;;;6.70;3.00;;;;;;;2.68;77.34;97682.73;104623;1263;99356;-65
2023/03/15 01:28:36;;;;;;;4.20;2.30;;;;;;;2.66;77.42;97690.39;104609;1265;112583;-66
2023/03/15 01:31:03;;;;;;;4.00;2.10;;;;;;;2.67;77.19;97695.73;104844;1260;99268;-65
2023/03/15 01:33:31;;;;;;;5.90;2.80;;;;;;;2.68;76.98;97698.84;104848;1262;108767;-66
2023/03/15 01:36:05;;;;;;;3.90;1.90;;;;;;;2.72;77.22;97705.20;104849;1262;100565;-64
2023/03/15 01:38:32;;;;;;;4.60;2.30;;;;;;;2.72;76.62;97704.12;104592;1267;99241;-64
2023/03/15 01:41:00;;;;;;;6.50;2.00;;;;;;;2.70;76.45;97706.24;104789;1262;114252;-65
2023/03/15 01:43:30;;;;;;;4.60;2.00;;;;;;;2.69;76.98;97705.23;104532;1265;100053;-64
2023/03/15 01:46:17;;;;;;;4.20;1.90;;;;;;;2.68;76.94;97705.34;104550;1262;108564;-64
2023/03/15 01:48:47;;;;;;;4.10;2.60;;;;;;;2.69;76.73;97706.15;104633;1262;99394;-67
2023/03/15 01:51:27;;;;;;;5.20;2.40;;;;;;;2.67;76.67;97708.98;104559;1264;99382;-68
2023/03/15 01:54:09;;;;;;;4.20;2.40;;;;;;;2.64;77.03;97712.59;104798;1262;113846;-66
2023/03/15 01:56:42;;;;;;;6.00;2.60;;;;;;;2.63;77.09;97711.67;104596;1265;99340;-64
2023/03/15 01:59:15;;;;;;;6.30;2.80;;;;;;;2.66;77.02;97712.30;104704;1262;108466;-64
2023/03/15 02:01:44;;;;;;;9.90;3.10;;;;;;;2.64;77.23;97714.91;104523;1262;99263;-64
2023/03/15 02:04:23;;;;;;;4.30;2.60;;;;;;;2.65;77.03;97716.54;104823;1264;99794;-65
2023/03/15 02:07:00;;;;;;;5.80;2.50;;;;;;;2.66;76.78;97713.86;104344;1272;113041;-65
2023/03/15 02:09:46;;;;;;;4.00;2.10;;;;;;;2.69;76.42;97714.91;104855;1267;99200;-65
2023/03/15 02:12:13;;;;;;;5.70;2.30;;;;;;;2.70;76.15;97712.20;104578;1265;107682;-64
2023/03/15 02:14:41;;;;;;;3.90;2.30;;;;;;;2.73;75.72;97717.74;104886;1273;99234;-64
2023/03/15 02:17:08;;;;;;;4.90;2.70;;;;;;;2.75;76.03;97716.21;105007;1261;99858;-64
2023/03/15 02:20:26;;;;;;;4.40;2.30;;;;;;;2.75;75.95;97718.16;104968;1260;99259;-64
2023/03/15 02:23:01;;;;;;;6.00;2.60;;;;;;;2.76;75.78;97725.52;104533;1269;100573;-64
2023/03/15 02:25:46;;;;;;;5.80;2.90;;;;;;;2.75;75.68;97735.10;104470;1266;108555;-65
2023/03/15 02:28:16;;;;;;;8.60;2.40;;;;;;;2.75;75.80;97733.69;104468;1267;99422;-64
2023/03/15 02:30:44;;;;;;;7.60;2.60;;;;;;;2.75;76.01;97736.02;104428;1269;99464;-64
2023/03/15 02:33:24;;;;;;;6.40;2.90;;;;;;;2.73;75.87;97736.36;104469;1269;113516;-66
2023/03/15 02:35:52;;;;;;;6.10;2.30;;;;;;;2.71;75.52;97745.56;104501;1263;100518;-64
2023/03/15 02:38:21;;;;;;;8.60;2.70;;;;;;;2.69;76.03;97745.05;104328;1269;108182;-65
2023/03/15 02:40:52;;;;;;;8.00;2.40;;;;;;;2.65;75.28;97750.90;104372;1267;99324;-64
2023/03/15 02:43:24;;;;;;;7.20;2.60;;;;;;;2.62;74.73;97751.62;104236;1271;102953;-64
2023/03/15 02:45:51;;;;;;;5.10;2.50;;;;;;;2.59;75.11;97754.77;104429;1268;113631;-65
2023/03/15 02:48:19;;;;;;;6.60;2.80;;;;;;;2.57;74.61;97760.73;104404;1268;99423;-64
2023/03/15 02:50:46;;;;;;;7.20;2.40;;;;;;;2.58;74.66;97770.95;104154;1272;108332;-64
2023/03/15 02:53:13;;;;;;;8.70;3.20;;;;;;;2.60;75.08;97770.08;104421;1269;99975;-65
2023/03/15 02:55:40;;;;;;;6.40;2.80;;;;;;;2.62;74.89;97773.36;104370;1268;99433;-65
2023/03/15 02:58:07;;;;;;;4.40;2.20;;;;;;;2.64;74.91;97782.27;104558;1267;99430;-65
2023/03/15 03:00:34;;;;;;;5.40;2.50;;;;;;;2.65;74.70;97779.67;104898;1263;100417;-65
2023/03/15 03:03:01;;;;;;;6.90;2.90;;;;;;;2.68;74.80;97773.57;104878;1257;99669;-65
2023/03/15 03:05:28;;;;;;;8.20;2.90;;;;;;;2.71;74.84;97769.66;104846;1257;99273;-65
2023/03/15 03:07:55;;;;;;;4.50;2.50;;;;;;;2.72;74.72;97768.08;104844;1257;99317;-65
2023/03/15 03:10:22;;;;;;;5.80;2.60;;;;;;;2.66;74.54;97766.66;104700;1262;99153;-68
2023/03/15 03:12:52;;;;;;;5.60;2.50;;;;;;;2.62;74.73;97768.55;104701;1261;99253;-65
2023/03/15 03:15:20;;;;;;;6.10;3.10;;;;;;;2.57;75.11;97776.48;104865;1257;99256;-66
2023/03/15 03:17:48;;;;;;;5.30;2.80;;;;;;;2.52;75.04;97779.98;104984;1262;100727;-63
2023/03/15 03:20:15;;;;;;;7.80;2.90;;;;;;;2.45;75.00;97778.57;104969;1257;99294;-64
2023/03/15 03:22:44;;;;;;;6.70;3.90;;;;;;;2.44;75.21;97778.20;104851;1260;100552;-65
2023/03/15 03:25:11;;;;;;;6.60;2.90;;;;;;;2.43;75.12;97783.23;104992;1261;108014;-65
2023/03/15 03:27:40;;;;;;;6.10;2.80;;;;;;;2.42;75.27;97787.88;104683;1265;99513;-65
2023/03/15 03:30:10;;;;;;;6.90;3.00;;;;;;;2.39;75.18;97793.27;105008;1256;100510;-64
2023/03/15 03:32:39;;;;;;;7.00;2.30;;;;;;;2.37;75.01;97797.40;104966;1263;113222;-65
2023/03/15 03:35:07;;;;;;;7.20;2.70;;;;;;;2.37;75.51;97803.73;104975;1260;99240;-64
2023/03/15 03:37:34;;;;;;;8.10;3.10;;;;;;;2.37;75.25;97812.10;104614;1257;107627;-64
2023/03/15 03:40:06;;;;;;;6.20;3.20;;;;;;;2.39;74.95;97816.91;104814;1262;99349;-65
2023/03/15 03:42:34;;;;;;;6.50;3.50;;;;;;;2.41;75.17;97822.30;104588;1265;100448;-64
2023/03/15 03:45:01;;;;;;;11.40;3.20;;;;;;;2.43;75.46;97829.05;104842;1261;112586;-64
2023/03/15 03:47:28;;;;;;;11.60;3.60;;;;;;;2.48;75.19;97835.34;104894;1257;99341;-65
2023/03/15 03:49:55;;;;;;;7.30;3.20;;;;;;;2.55;75.27;97838.27;104745;1263;99247;-65
2023/03/15 03:52:22;;;;;;;7.00;2.80;;;;;;;2.57;74.97;97844.38;104747;1261;99260;-65
2023/03/15 03:54:49;;;;;;;6.60;3.20;;;;;;;2.57;75.04;97852.66;104954;1257;99254;-65
2023/03/15 03:57:16;;;;;;;6.40;3.10;;;;;;;2.58;75.25;97849.83;104927;1270;99844;-65
2023/03/15 03:59:43;;;;;;;9.30;3.80;;;;;;;2.55;75.12;97855.15;104961;1257;99320;-65
2023/03/15 04:02:10;;;;;;;7.30;3.80;;;;;;;2.53;75.24;97857.98;104854;1263;99270;-65
2023/03/15 04:04:40;;;;;;;8.70;3.10;;;;;;;2.49;75.20;97868.77;104652;1262;99300;-65
2023/03/15 04:07:07;;;;;;;4.20;2.30;;;;;;;2.45;75.19;97872.73;104610;1265;113161;-65
2023/03/15 04:09:36;;;;;;;6.50;3.20;;;;;;;2.40;74.89;97865.42;104938;1257;99372;-66
2023/03/15 04:12:04;;;;;;;6.10;2.70;;;;;;;2.40;75.23;97861.41;104438;1265;107085;-65
2023/03/15 04:14:32;;;;;;;10.90;3.80;;;;;;;2.38;75.46;97863.58;104642;1266;99257;-66
2023/03/15 04:17:02;;;;;;;9.90;3.20;;;;;;;2.35;75.37;97865.17;104904;1257;99845;-66
2023/03/15 04:19:29;;;;;;;5.40;2.70;;;;;;;2.31;75.36;97870.71;104986;1263;113348;-66
2023/03/15 04:21:57;;;;;;;4.70;2.70;;;;;;;2.28;75.56;97881.50;104905;1271;100543;-66
2023/03/15 04:24:24;;;;;;;10.50;3.60;;;;;;;2.24;75.43;97882.14;104787;1263;99464;-66
2023/03/15 04:26:56;;;;;;;4.80;2.20;;;;;;;2.22;75.29;97871.90;104816;1263;100562;-66
2023/03/15 04:29:23;;;;;;;8.40;3.60;;;;;;;2.22;74.97;97875.46;104833;1261;100424;-65
2023/03/15 04:31:50;;;;;;;10.10;3.70;;;;;;;2.24;74.76;97874.69;104452;1262;99291;-63
2023/03/15 04:34:17;;;;;;;8.50;3.50;;;;;;;2.27;74.77;97879.86;104712;1262;99834;-66
2023/03/15 04:36:44;;;;;;;13.70;5.20;;;;;;;2.33;74.90;97876.80;104814;1267;100625;-67
2023/03/15 04:39:11;;;;;;;9.60;3.30;;;;;;;2.38;74.70;97884.52;104883;1261;100670;-65
2023/03/15 04:41:38;;;;;;;6.80;3.20;;;;;;;2.37;74.53;97888.91;105001;1263;99269;-65
2023/03/15 04:44:05;;;;;;;5.80;3.10;;;;;;;2.37;74.67;97892.36;104967;1262;99327;-66
2023/03/15 04:46:32;;;;;;;10.20;3.20;;;;;;;2.39;75.02;97895.59;104997;1264;100594;-66
2023/03/15 04:49:00;;;;;;;8.20;3.10;;;;;;;2.41;75.31;97901.85;104963;1257;99245;-65
2023/03/15 04:51:27;;;;;;;8.80;3.00;;;;;;;2.39;75.02;97909.94;105013;1271;99261;-65
2023/03/15 04:53:54;;;;;;;8.50;3.50;;;;;;;2.35;75.11;97911.52;104916;1262;99352;-65
2023/03/15 04:56:21;;;;;;;6.80;2.60;;;;;;;2.31;75.20;97914.03;104971;1262;99379;-65
2023/03/15 04:58:48;;;;;;;9.10;2.90;;;;;;;2.27;75.01;97909.01;104959;1263;99285;-65
2023/03/15 05:01:16;;;;;;;4.80;2.80;;;;;;;2.19;74.99;97904.77;104893;1262;100545;-65
2023/03/15 05:03:43;;;;;;;7.70;2.30;;;;;;;2.14;75.00;97903.66;104898;1262;99452;-65
2023/03/15 05:06:10;;;;;;;6.00;2.40;;;;;;;2.10;74.93;97904.00;104865;1272;99682;-65
2023/03/15 05:08:37;;;;;;;6.40;1.80;;;;;;;2.04;75.10;97907.00;104704;1257;99351;-65
2023/03/15 05:11:04;;;;;;;9.10;2.70;;;;;;;1.97;74.98;97907.73;105042;1257;99296;-65
2023/03/15 05:13:31;;;;;;;5.40;1.90;;;;;;;1.94;75.06;97909.67;104960;1261;99495;-65
2023/03/15 05:15:59;;;;;;;7.50;3.10;;;;;;;1.91;75.04;97915.41;104688;1263;99233;-65
2023/03/15 05:18:26;;;;;;;10.10;2.60;;;;;;;1.88;75.13;97914.66;104840;1257;100432;-65
2023/03/15 05:20:56;;;;;;;14.60;5.20;;;;;;;1.89;75.11;97914.61;104827;1262;100549;-65
2023/03/15 05:23:24;;;;;;;9.00;3.10;;;;;;;1.90;75.10;97919.09;104693;1263;99340;-65
2023/03/15 05:25:52;;;;;;;10.30;4.10;;;;;;;1.93;75.00;97918.00;104810;1261;99784;-65
2023/03/15 05:28:22;;;;;;;11.60;3.60;;;;;;;1.95;74.83;97915.73;104750;1261;113209;-65
2023/03/15 05:30:51;;;;;;;21.30;8.50;;;;;;;1.96;74.83;97921.18;104682;1263;99262;-65
2023/03/15 05:33:19;;;;;;;37.50;14.40;;;;;;;2.00;74.80;97928.09;104648;1262;108044;-65
2023/03/15 05:35:47;;;;;;;9.20;3.20;;;;;;;2.02;74.77;97933.17;104566;1265;99256;-65
2023/03/15 05:38:15;;;;;;;8.90;3.00;;;;;;;2.03;74.37;97929.81;104626;1257;100009;-65
2023/03/15 05:40:43;;;;;;;9.40;3.20;;;;;;;2.03;74.47;97929.43;104913;1263;113633;-65
2023/03/15 05:43:11;;;;;;;5.70;1.80;;;;;;;2.03;74.73;97938.23;104920;1270;99182;-65
2023/03/15 05:45:39;;;;;;;6.30;1.90;;;;;;;2.03;74.41;97945.65;104725;1262;108578;-66
2023/03/15 05:48:06;;;;;;;4.10;1.30;;;;;;;1.98;74.43;97951.60;104462;1265;99355;-65
2023/03/15 05:50:33;;;;;;;3.00;1.40;;;;;;;1.97;74.44;97957.67;104648;1257;99278;-65
2023/03/15 05:53:00;;;;;;;4.70;1.60;;;;;;;1.95;74.67;97961.55;104617;1261;99241;-64
2023/03/15 05:55:27;;;;;;;4.00;1.40;;;;;;;1.96;74.40;97963.35;104872;1263;100562;-68
2023/03/15 05:57:54;;;;;;;6.00;1.40;;;;;;;1.95;74.22;97961.17;104690;1263;100567;-68
2023/03/15 06:00:21;;;;;;;2.90;1.50;;;;;;;1.97;74.46;97966.69;104930;1263;100564;-66
2023/03/15 06:02:49;;;;;;;5.20;1.10;;;;;;;1.96;74.40;97970.36;105006;1257;99384;-66
2023/03/15 06:05:16;;;;;;;3.90;1.70;;;;;;;1.96;74.22;97976.48;104907;1263;99265;-65
2023/03/15 06:07:45;;;;;;;5.90;1.60;;;;;;;1.96;74.64;97982.95;104788;1263;99303;-65
2023/03/15 06:10:12;;;;;;;5.20;2.00;;;;;;;2.01;74.56;97984.08;104821;1263;99282;-65
2023/03/15 06:12:40;;;;;;;8.20;1.90;;;;;;;2.07;74.65;97991.52;104890;1262;100550;-65
2023/03/15 06:15:08;;;;;;;4.40;1.40;;;;;;;2.11;74.18;97997.58;104880;1263;99246;-65
2023/03/15 06:17:35;;;;;;;8.50;2.70;;;;;;;2.13;74.10;98008.92;104683;1264;99910;-65
2023/03/15 06:20:02;;;;;;;9.40;2.00;;;;;;;2.23;74.06;98011.83;105096;1276;99326;-66
2023/03/15 06:22:29;;;;;;;10.00;1.80;;;;;;;2.31;73.81;98014.02;104859;1257;99246;-65
2023/03/15 06:24:56;;;;;;;5.60;1.30;;;;;;;2.38;73.80;98014.10;104875;1271;100565;-67
2023/03/15 06:27:23;;;;;;;9.10;2.80;;;;;;;2.45;73.89;98018.08;104712;1263;100447;-65
2023/03/15 06:29:50;;;;;;;9.20;2.50;;;;;;;2.51;73.87;98018.27;104843;1263;100645;-65
2023/03/15 06:32:17;;;;;;;5.00;1.60;;;;;;;2.57;73.56;98024.91;104694;1257;100547;-66
2023/03/15 06:34:48;;;;;;;6.30;1.70;;;;;;;2.59;73.20;98030.20;104583;1271;99167;-67
2023/03/15 06:37:15;;;;;;;3.70;1.10;;;;;;;2.60;73.17;98034.42;104858;1270;100556;-66
2023/03/15 06:39:58;;;;;;;4.80;1.60;;;;;;;2.63;73.36;98042.36;104683;1263;113470;-66
2023/03/15 06:42:25;;;;;;;10.00;1.80;;;;;;;2.65;73.18;98045.50;104975;1257;100538;-66
2023/03/15 06:44:52;;;;;;;3.80;1.50;;;;;;;2.63;72.78;98047.18;104911;1263;100435;-66
2023/03/15 06:47:19;;;;;;;6.30;1.50;;;;;;;2.63;72.86;98050.80;104937;1263;99643;-66
2023/03/15 06:49:49;;;;;;;7.70;1.70;;;;;;;2.67;73.11;98059.08;104994;1263;99228;-66
2023/03/15 06:52:17;;;;;;;4.40;1.30;;;;;;;2.71;72.77;98069.33;104932;1261;113546;-65
2023/03/15 06:54:44;;;;;;;8.80;1.60;;;;;;;2.68;72.16;98075.77;104724;1264;99416;-66
2023/03/15 06:57:11;;;;;;;5.60;1.50;;;;;;;2.72;72.68;98087.51;104784;1263;99322;-65
2023/03/15 06:59:43;;;;;;;4.90;1.70;;;;;;;2.76;72.42;98085.11;104963;1273;99289;-66
2023/03/15 07:02:32;;;;;;;5.50;1.30;;;;;;;2.86;72.46;98086.59;104587;1257;99565;-66
2023/03/15 07:05:13;;;;;;;4.00;1.40;;;;;;;2.87;72.06;98091.46;104754;1263;113882;-65
2023/03/15 07:07:47;;;;;;;3.80;1.40;;;;;;;2.85;71.68;98092.11;104782;1271;99335;-65
2023/03/15 07:10:16;;;;;;;5.50;1.60;;;;;;;2.86;71.73;98092.06;104669;1267;100600;-65
2023/03/15 07:12:43;;;;;;;4.30;1.50;;;;;;;2.91;71.25;98093.13;104957;1270;99345;-65
2023/03/15 07:15:10;;;;;;;7.30;1.60;;;;;;;2.94;71.15;98096.79;104713;1271;99905;-65
2023/03/15 07:17:38;;;;;;;6.00;1.70;;;;;;;2.96;70.56;98102.02;104801;1260;113204;-66
2023/03/15 07:20:07;;;;;;;5.10;1.30;;;;;;;2.98;70.72;98104.73;104884;1272;99333;-64
2023/03/15 07:22:34;;;;;;;5.50;1.90;;;;;;;3.04;71.04;98107.09;104959;1260;108666;-66
2023/03/15 07:25:01;;;;;;;7.30;1.40;;;;;;;3.07;70.87;98107.34;104959;1262;99263;-65
2023/03/15 07:27:29;;;;;;;5.50;1.40;;;;;;;3.11;70.51;98105.81;104973;1263;99256;-66
2023/03/15 07:29:56;;;;;;;2.30;1.20;;;;;;;3.03;70.37;98105.73;104954;1270;99397;-65
2023/03/15 07:32:23;;;;;;;5.30;1.50;;;;;;;2.98;69.89;98110.95;104962;1263;99323;-64
2023/03/15 07:34:50;;;;;;;4.50;1.10;;;;;;;2.93;70.39;98118.13;104933;1263;100959;-65
2023/03/15 07:37:17;;;;;;;3.00;1.00;;;;;;;2.98;70.54;98126.50;104950;1263;99339;-65
2023/03/15 07:39:44;;;;;;;5.90;1.40;;;;;;;3.05;70.67;98128.52;104949;1257;99933;-65
2023/03/15 07:42:11;;;;;;;4.50;1.40;;;;;;;3.11;70.62;98127.64;104888;1271;99759;-65
2023/03/15 07:44:39;;;;;;;5.20;1.40;;;;;;;3.18;70.05;98140.12;104962;1263;99822;-65
2023/03/15 07:47:06;;;;;;;5.40;1.60;;;;;;;3.24;70.38;98145.98;104877;1273;100428;-65
2023/03/15 07:49:34;;;;;;;4.80;1.10;;;;;;;3.32;69.30;98148.29;104953;1271;99304;-65
2023/03/15 07:52:01;;;;;;;7.80;2.20;;;;;;;3.34;69.20;98144.86;104774;1263;100675;-66
2023/03/15 07:54:30;;;;;;;4.80;1.40;;;;;;;3.39;69.12;98141.59;104803;1270;99268;-66
2023/03/15 07:56:58;;;;;;;8.90;2.60;;;;;;;3.41;68.93;98139.09;104944;1263;99304;-66
2023/03/15 07:59:25;;;;;;;8.60;2.30;;;;;;;3.53;69.84;98137.33;104959;1263;99345;-65
2023/03/15 08:01:52;;;;;;;5.50;2.00;;;;;;;3.68;69.61;98140.08;104919;1262;99256;-65
2023/03/15 08:04:20;;;;;;;8.00;2.50;;;;;;;3.74;68.47;98142.67;104952;1263;99356;-65
2023/03/15 08:06:47;;;;;;;16.80;4.30;;;;;;;3.71;67.35;98146.49;104938;1270;100524;-65
2023/03/15 08:09:14;;;;;;;6.60;1.80;;;;;;;3.77;68.04;98152.04;104930;1264;99316;-66
2023/03/15 08:11:41;;;;;;;14.60;7.60;;;;;;;3.90;67.60;98160.30;104904;1264;99744;-65
2023/03/15 08:14:10;;;;;;;15.80;8.20;;;;;;;3.99;67.47;98164.14;104809;1262;99269;-65
2023/03/15 08:16:37;;;;;;;11.70;3.80;;;;;;;4.11;66.88;98176.47;105036;1270;99319;-65
2023/03/15 08:19:04;;;;;;;10.90;3.50;;;;;;;4.20;66.52;98175.81;104989;1270;99807;-65
2023/03/15 08:21:32;;;;;;;12.60;3.50;;;;;;;4.25;66.38;98170.29;104936;1264;99276;-65
2023/03/15 08:24:00;;;;;;;9.60;3.30;;;;;;;4.37;66.65;98172.80;104967;1270;100526;-64
2023/03/15 08:26:27;;;;;;;4.00;2.40;;;;;;;4.41;65.47;98170.48;104927;1271;99224;-66
2023/03/15 08:28:54;;;;;;;5.50;1.60;;;;;;;4.45;65.35;98172.57;104979;1263;99260;-65
2023/03/15 08:31:22;;;;;;;4.30;1.20;;;;;;;4.46;65.20;98181.67;104987;1263;99393;-66
2023/03/15 08:33:50;;;;;;;6.70;2.30;;;;;;;4.51;65.00;98189.02;104701;1276;99323;-66
2023/03/15 08:36:17;;;;;;;5.10;1.70;;;;;;;4.59;64.73;98188.49;104751;1270;99290;-64
2023/03/15 08:38:44;;;;;;;9.20;2.40;;;;;;;4.66;64.44;98186.21;104680;1260;99658;-68
2023/03/15 08:41:12;;;;;;;8.40;2.40;;;;;;;4.72;64.12;98188.10;104750;1270;99262;-66
2023/03/15 08:43:39;;;;;;;7.70;2.30;;;;;;;4.80;64.25;98191.29;104945;1263;99233;-68
2023/03/15 08:46:06;;;;;;;5.80;1.60;;;;;;;4.91;64.12;98190.84;104907;1262;99585;-65
2023/03/15 08:48:33;;;;;;;3.30;1.50;;;;;;;4.96;63.17;98194.50;104991;1263;99253;-66
2023/03/15 08:51:05;;;;;;;6.20;1.50;;;;;;;4.94;63.03;98199.67;104899;1267;99295;-66
2023/03/15 08:53:32;;;;;;;8.10;1.90;;;;;;;4.97;62.71;98201.23;104656;1257;99332;-65
2023/03/15 08:56:00;;;;;;;6.40;2.30;;;;;;;5.04;62.05;98206.69;104991;1271;99249;-65
2023/03/15 08:58:27;;;;;;;4.20;1.80;;;;;;;5.17;61.78;98208.66;104896;1261;99300;-65
2023/03/15 09:00:56;;;;;;;9.30;2.80;;;;;;;5.32;61.16;98206.64;104949;1267;99367;-65
2023/03/15 09:03:23;;;;;;;6.70;1.70;;;;;;;5.41;60.85;98213.70;104799;1257;99745;-65
2023/03/15 09:05:55;;;;;;;4.60;2.00;;;;;;;5.46;60.39;98218.87;104869;1263;99352;-65
2023/03/15 09:08:24;;;;;;;10.70;2.30;;;;;;;5.53;60.37;98222.43;104903;1263;113440;-65
2023/03/15 09:10:58;;;;;;;6.40;2.20;;;;;;;5.61;59.37;98223.91;104996;1263;99359;-65
2023/03/15 09:13:25;;;;;;;2.50;1.20;;;;;;;5.58;58.66;98234.77;104648;1266;107502;-65
2023/03/15 09:15:53;;;;;;;3.80;1.70;;;;;;;5.50;58.00;98234.20;104954;1262;99335;-65
2023/03/15 09:18:21;;;;;;;4.20;1.60;;;;;;;5.46;58.25;98239.69;104545;1265;100906;-65
2023/03/15 09:20:48;;;;;;;5.40;1.50;;;;;;;5.37;58.04;98235.16;104580;1267;113599;-65
2023/03/15 09:23:15;;;;;;;4.40;2.00;;;;;;;5.36;58.66;98232.52;104712;1263;99350;-65
2023/03/15 09:25:42;;;;;;;4.30;2.10;;;;;;;5.38;58.92;98234.95;104833;1263;99249;-66
2023/03/15 09:28:11;;;;;;;12.10;4.40;;;;;;;5.45;58.53;98235.46;104848;1267;99272;-66
2023/03/15 09:30:40;;;;;;;9.40;3.60;;;;;;;5.43;57.19;98235.81;104832;1263;99745;-66
2023/03/15 09:33:08;;;;;;;9.10;3.20;;;;;;;5.35;57.50;98229.88;104523;1265;112527;-66
2023/03/15 09:35:35;;;;;;;10.90;3.80;;;;;;;5.39;57.41;98233.67;104739;1273;100444;-66
2023/03/15 09:38:02;;;;;;;4.60;2.40;;;;;;;5.45;57.80;98236.38;104595;1257;99345;-64
2023/03/15 09:40:33;;;;;;;5.60;1.70;;;;;;;5.62;58.26;98236.18;104967;1261;99247;-66
2023/03/15 09:43:14;;;;;;;6.70;2.60;;;;;;;5.86;57.93;98237.72;104959;1262;99296;-65
2023/03/15 09:46:16;;;;;;;5.10;2.70;;;;;;;6.00;57.07;98242.27;105004;1263;113552;-65
2023/03/15 09:49:02;;;;;;;5.60;2.10;;;;;;;6.02;56.04;98240.02;104912;1268;100555;-65
2023/03/15 09:51:40;;;;;;;9.40;3.10;;;;;;;6.07;57.06;98240.73;104587;1268;107699;-65
2023/03/15 09:54:17;;;;;;;4.80;1.90;;;;;;;6.15;56.51;98245.13;104940;1264;99272;-65
2023/03/15 09:56:55;;;;;;;5.60;2.40;;;;;;;6.11;55.66;98242.52;104611;1265;99730;-65
2023/03/15 09:59:30;;;;;;;5.50;2.50;;;;;;;6.08;55.28;98246.27;104641;1262;113609;-66
2023/03/15 10:02:03;;;;;;;4.70;2.30;;;;;;;6.06;55.11;98245.33;104679;1271;99240;-65
2023/03/15 10:04:41;;;;;;;4.20;1.80;;;;;;;6.10;55.29;98247.64;104671;1275;106643;-67
2023/03/15 10:07:14;;;;;;;3.40;1.20;;;;;;;6.10;54.96;98250.64;104641;1267;99528;-65
2023/03/15 10:09:42;;;;;;;7.90;2.50;;;;;;;6.09;54.92;98257.20;104972;1270;99442;-65
2023/03/15 10:12:09;;;;;;;7.50;2.30;;;;;;;6.11;54.91;98256.90;104939;1261;112594;-65
2023/03/15 10:14:52;;;;;;;5.90;2.00;;;;;;;6.03;54.10;98258.89;104937;1270;99249;-65
2023/03/15 10:17:57;;;;;;;6.10;3.10;;;;;;;6.03;54.59;98260.23;104743;1270;108555;-65
2023/03/15 10:20:33;;;;;;;3.70;2.00;;;;;;;5.97;54.23;98258.52;104594;1266;100556;-65
2023/03/15 10:23:09;;;;;;;4.90;1.60;;;;;;;5.82;52.59;98255.39;104806;1261;99365;-65
2023/03/15 10:25:37;;;;;;;3.40;1.40;;;;;;;5.69;53.22;98260.50;104579;1265;112487;-65
2023/03/15 10:28:28;;;;;;;7.50;1.80;;;;;;;5.72;53.64;98258.77;104781;1270;99351;-65
2023/03/15 10:31:11;;;;;;;6.50;2.20;;;;;;;5.71;53.12;98268.20;104849;1261;108606;-65
2023/03/15 10:33:53;;;;;;;3.60;1.50;;;;;;;5.64;53.32;98272.30;104780;1273;100674;-64
2023/03/15 10:36:22;;;;;;;6.60;2.30;;;;;;;5.65;53.44;98274.48;104961;1262;99252;-65
2023/03/15 10:38:50;;;;;;;7.00;2.80;;;;;;;5.64;53.21;98282.64;104612;1263;112613;-66
2023/03/15 10:41:38;;;;;;;6.70;2.10;;;;;;;5.58;52.52;98278.48;104872;1264;99229;-65
2023/03/15 10:44:17;;;;;;;5.80;2.50;;;;;;;5.51;52.80;98277.35;104616;1266;107704;-65
2023/03/15 10:47:06;;;;;;;4.60;2.10;;;;;;;5.36;52.48;98278.34;104686;1271;99252;-65
2023/03/15 10:49:49;;;;;;;6.90;1.90;;;;;;;5.36;53.63;98275.61;104671;1262;99285;-66
2023/03/15 10:52:36;;;;;;;9.10;3.90;;;;;;;5.46;53.94;98279.10;104542;1265;112636;-66
2023/03/15 10:55:13;;;;;;;9.10;2.50;;;;;;;5.49;53.51;98275.48;104439;1276;99340;-66
2023/03/15 10:57:52;;;;;;;3.40;1.60;;;;;;;5.49;53.49;98280.21;104390;1267;108223;-67
2023/03/15 11:00:24;;;;;;;7.70;2.60;;;;;;;5.51;53.57;98279.91;104961;1270;99233;-66
2023/03/15 11:03:16;;;;;;;9.80;3.70;;;;;;;5.58;53.38;98279.88;104917;1267;100453;-66
2023/03/15 11:05:47;;;;;;;8.30;2.90;;;;;;;5.59;53.73;98276.61;104942;1270;113725;-66
2023/03/15 11:08:36;;;;;;;4.20;1.60;;;;;;;5.68;52.07;98280.80;104609;1265;99461;-66
2023/03/15 11:11:04;;;;;;;5.10;2.10;;;;;;;5.69;52.00;98279.64;104860;1272;108758;-66
2023/03/15 11:13:36;;;;;;;4.20;1.90;;;;;;;5.74;51.55;98282.08;104610;1273;99925;-66
2023/03/15 11:16:19;;;;;;;4.00;1.80;;;;;;;5.78;52.34;98283.40;104986;1262;99284;-66
2023/03/15 11:19:02;;;;;;;5.00;2.40;;;;;;;5.85;51.69;98283.69;104569;1265;112587;-64
2023/03/15 11:21:47;;;;;;;4.40;1.90;;;;;;;5.96;52.76;98275.72;104534;1268;99321;-67
2023/03/15 11:24:25;;;;;;;5.00;2.30;;;;;;;6.09;52.03;98273.45;104774;1257;108253;-67
2023/03/15 11:26:56;;;;;;;4.20;2.20;;;;;;;6.26;51.79;98273.09;104980;1261;99256;-65
2023/03/15 11:29:32;;;;;;;5.50;2.20;;;;;;;6.38;52.53;98274.89;104686;1275;99551;-64
2023/03/15 11:32:09;;;;;;;3.50;1.80;;;;;;;6.46;51.63;98285.55;104645;1275;112495;-65
2023/03/15 11:35:01;;;;;;;3.30;1.70;;;;;;;6.43;50.99;98291.25;104954;1266;99256;-65
2023/03/15 11:37:50;;;;;;;6.40;2.60;;;;;;;6.36;50.91;98293.86;104731;1273;108343;-65
2023/03/15 11:40:32;;;;;;;10.40;4.50;;;;;;;6.33;51.17;98292.66;104946;1271;99364;-64
2023/03/15 11:43:08;;;;;;;5.60;3.00;;;;;;;6.28;51.53;98296.70;105009;1264;99427;-65
2023/03/15 11:45:43;;;;;;;5.30;3.30;;;;;;;6.28;51.16;98291.86;104970;1261;113713;-65